Time;durP1;ratioP1;P1;durP2;ratioP2;P2;SDS_P1;SDS_P2;PMS_P1;PMS_P2;Temp;Humidity;BMP_temperature;BMP_pressure;BME280_temperature;BME280_humidity;BME280_pressure;Samples;Min_cycle;Max_cycle;Signal;HPM_P1;HPM_P2
2022/04/04 00:00:08;;;;;;;0.50;0.50;;;2.50;99.90;;;;;;5072299;28;20197;-76
2022/04/04 00:02:34;;;;;;;0.68;0.68;;;2.50;99.90;;;;;;5074505;28;20228;-75
2022/04/04 00:05:01;;;;;;;0.50;0.50;;;2.50;99.90;;;;;;5074103;28;20239;-74
2022/04/04 00:07:28;;;;;;;0.65;0.60;;;2.50;99.90;;;;;;5074738;28;20589;-76
2022/04/04 00:09:55;;;;;;;0.50;0.50;;;2.50;99.90;;;;;;5073268;28;20204;-77
2022/04/04 00:12:22;;;;;;;1.15;1.05;;;2.50;99.90;;;;;;5074679;28;20197;-77
2022/04/04 00:14:49;;;;;;;0.50;0.45;;;2.40;99.90;;;;;;5074542;28;20225;-76
2022/04/04 00:17:17;;;;;;;1.00;0.80;;;2.40;99.90;;;;;;5074198;28;20291;-74
2022/04/04 00:19:45;;;;;;;0.50;0.50;;;2.40;99.90;;;;;;5073291;28;20192;-76
2022/04/04 00:22:12;;;;;;;0.82;0.60;;;2.40;99.90;;;;;;5074424;28;20263;-76
2022/04/04 00:24:38;;;;;;;0.63;0.63;;;2.40;99.90;;;;;;5074200;28;20203;-76
2022/04/04 00:27:05;;;;;;;0.80;0.80;;;2.40;99.90;;;;;;5074047;28;20194;-74
2022/04/04 00:29:32;;;;;;;2.45;1.13;;;2.30;99.90;;;;;;5073261;28;20197;-76
2022/04/04 00:31:59;;;;;;;1.33;1.23;;;2.30;99.90;;;;;;5072972;28;20204;-76
2022/04/04 00:34:27;;;;;;;0.50;0.50;;;2.30;99.90;;;;;;5074617;28;20195;-76
2022/04/04 00:36:54;;;;;;;0.50;0.47;;;2.30;99.90;;;;;;5074117;28;20248;-76
2022/04/04 00:39:21;;;;;;;1.90;1.17;;;2.20;99.90;;;;;;5073338;28;20208;-77
2022/04/04 00:41:48;;;;;;;0.63;0.60;;;2.20;99.90;;;;;;5073820;28;20686;-77
2022/04/04 00:44:15;;;;;;;0.50;0.47;;;2.20;99.90;;;;;;5073230;28;20201;-76
2022/04/04 00:46:43;;;;;;;0.68;0.68;;;2.10;99.90;;;;;;5074058;28;20221;-77
2022/04/04 00:49:10;;;;;;;8.23;4.15;;;2.10;99.90;;;;;;5073364;28;20203;-77
2022/04/04 00:51:39;;;;;;;1.83;1.23;;;2.10;99.90;;;;;;5073795;28;20196;-76
2022/04/04 00:54:07;;;;;;;1.70;1.60;;;2.00;99.90;;;;;;5073718;28;20190;-78
2022/04/04 00:56:35;;;;;;;0.50;0.50;;;2.00;99.90;;;;;;5073608;28;20216;-76
2022/04/04 00:59:03;;;;;;;3.47;3.10;;;2.00;99.90;;;;;;5072686;28;20247;-76
2022/04/04 01:01:30;;;;;;;0.73;0.73;;;2.00;99.90;;;;;;5073959;28;20285;-76
2022/04/04 01:03:57;;;;;;;2.95;2.75;;;2.00;99.90;;;;;;5073505;28;20207;-76
2022/04/04 01:06:24;;;;;;;1.88;1.77;;;2.00;99.90;;;;;;5073173;28;20216;-76
2022/04/04 01:08:52;;;;;;;2.35;2.22;;;2.00;99.90;;;;;;5072909;28;20575;-76
2022/04/04 01:11:19;;;;;;;0.60;0.60;;;2.00;99.90;;;;;;5072948;28;20207;-76
2022/04/04 01:13:47;;;;;;;1.13;1.13;;;2.00;99.90;;;;;;5073501;28;20200;-76
2022/04/04 01:16:13;;;;;;;0.60;0.60;;;2.00;99.90;;;;;;5073422;28;20228;-77
2022/04/04 01:18:40;;;;;;;1.02;1.02;;;2.00;99.90;;;;;;5072905;28;20197;-76
2022/04/04 01:21:07;;;;;;;1.75;1.65;;;2.00;99.90;;;;;;5072480;28;20576;-76
2022/04/04 01:23:39;;;;;;;1.77;1.67;;;2.00;99.90;;;;;;5073039;28;20205;-76
2022/04/04 01:26:08;;;;;;;1.58;1.40;;;2.00;99.90;;;;;;5073292;28;20702;-76
2022/04/04 01:28:35;;;;;;;0.50;0.50;;;2.10;99.90;;;;;;5072957;28;20604;-73
2022/04/04 01:31:01;;;;;;;2.17;2.08;;;2.10;99.90;;;;;;5072404;28;20190;-76
2022/04/04 01:33:28;;;;;;;0.63;0.60;;;2.00;99.90;;;;;;5071941;28;20194;-76
2022/04/04 01:35:58;;;;;;;1.55;1.45;;;2.00;99.90;;;;;;5072742;28;20584;-75
2022/04/04 01:38:25;;;;;;;2.33;2.13;;;2.00;99.90;;;;;;5072601;28;20229;-76
2022/04/04 01:40:52;;;;;;;0.88;0.88;;;2.00;99.90;;;;;;5071929;28;20204;-76
2022/04/04 01:43:20;;;;;;;0.55;0.55;;;1.90;99.90;;;;;;5072426;28;20668;-75
2022/04/04 01:48:35;;;;;;;0.77;0.77;;;1.90;99.90;;;;;;5072635;28;20198;-76
2022/04/04 01:51:02;;;;;;;1.45;1.35;;;2.00;99.90;;;;;;5072274;28;20175;-76
2022/04/04 01:53:29;;;;;;;0.50;0.40;;;2.00;99.90;;;;;;5072595;28;20200;-75
2022/04/04 01:55:59;;;;;;;1.83;1.67;;;2.00;99.90;;;;;;5072466;28;20234;-77
2022/04/04 01:58:27;;;;;;;1.13;1.08;;;2.00;99.90;;;;;;5072389;28;20190;-76
2022/04/04 02:00:56;;;;;;;0.90;0.70;;;2.00;99.90;;;;;;5071518;28;20605;-76
2022/04/04 02:03:23;;;;;;;1.35;1.23;;;2.00;99.90;;;;;;5072404;28;20221;-76
2022/04/04 02:05:50;;;;;;;1.27;1.27;;;1.90;99.90;;;;;;5071842;28;20218;-76
2022/04/04 02:08:17;;;;;;;1.77;1.25;;;1.90;99.90;;;;;;5072460;28;20197;-77
2022/04/04 02:10:44;;;;;;;1.40;1.30;;;1.90;99.90;;;;;;5071216;28;20195;-75
2022/04/04 02:13:11;;;;;;;3.90;3.60;;;1.90;99.90;;;;;;5072127;28;20734;-76
2022/04/04 02:15:39;;;;;;;1.65;1.55;;;1.90;99.90;;;;;;5072014;28;20222;-76
2022/04/04 02:18:06;;;;;;;0.70;0.70;;;1.90;99.90;;;;;;5072471;28;20200;-76
2022/04/04 02:20:33;;;;;;;2.35;2.25;;;1.90;99.90;;;;;;5071044;28;20207;-76
2022/04/04 02:23:00;;;;;;;1.25;0.70;;;1.90;99.90;;;;;;5071855;28;20225;-76
2022/04/04 02:25:27;;;;;;;9.07;2.65;;;2.00;99.90;;;;;;5072010;28;20575;-75
2022/04/04 02:27:54;;;;;;;2.63;2.47;;;2.00;99.90;;;;;;5071799;28;20711;-75
2022/04/04 02:30:20;;;;;;;0.60;0.50;;;2.10;99.90;;;;;;5072197;28;20199;-76
2022/04/04 02:32:48;;;;;;;1.95;1.85;;;2.10;99.90;;;;;;5071065;28;20199;-76
2022/04/04 02:35:15;;;;;;;5.78;5.22;;;2.20;99.90;;;;;;5071355;28;20368;-76
2022/04/04 02:37:43;;;;;;;2.63;2.40;;;2.20;99.90;;;;;;5071983;28;20242;-76
2022/04/04 02:40:11;;;;;;;3.35;3.10;;;2.20;99.90;;;;;;5071144;28;20199;-76
2022/04/04 02:42:38;;;;;;;4.07;2.67;;;2.20;99.90;;;;;;5071634;28;20289;-76
2022/04/04 02:45:05;;;;;;;1.75;1.65;;;2.20;99.90;;;;;;5071462;28;20227;-76
2022/04/04 02:47:33;;;;;;;1.50;1.40;;;2.20;99.90;;;;;;5071987;28;20191;-77
2022/04/04 02:50:01;;;;;;;1.55;1.10;;;2.20;99.90;;;;;;5070725;28;20783;-76
2022/04/04 02:52:28;;;;;;;3.00;2.70;;;2.20;99.90;;;;;;5071192;28;20567;-76
2022/04/04 02:54:55;;;;;;;2.35;1.77;;;2.20;99.90;;;;;;5071607;28;20601;-76
2022/04/04 02:57:21;;;;;;;1.35;1.15;;;2.20;99.90;;;;;;5071456;28;20227;-75
2022/04/04 02:59:48;;;;;;;2.65;2.45;;;2.20;99.90;;;;;;5070863;28;20190;-76
2022/04/04 03:02:15;;;;;;;2.30;2.17;;;2.20;99.90;;;;;;5071083;28;20195;-77
2022/04/04 03:04:42;;;;;;;2.50;2.08;;;2.20;99.90;;;;;;5071443;28;20263;-76
2022/04/04 03:07:10;;;;;;;2.72;2.38;;;2.20;99.90;;;;;;5071126;28;20189;-77
2022/04/04 03:09:38;;;;;;;5.82;3.20;;;2.20;99.90;;;;;;5071849;28;20211;-74
2022/04/04 03:12:06;;;;;;;3.47;2.00;;;2.20;99.90;;;;;;5071548;28;20252;-75
2022/04/04 03:14:33;;;;;;;3.25;1.52;;;2.20;99.90;;;;;;5071125;28;20210;-76
2022/04/04 03:16:59;;;;;;;2.85;2.75;;;2.20;99.90;;;;;;5080076;28;20222;-76
2022/04/04 03:19:27;;;;;;;2.35;1.77;;;2.20;99.90;;;;;;5070698;28;20198;-75
2022/04/04 03:21:56;;;;;;;3.08;2.78;;;2.20;99.90;;;;;;5071342;28;20193;-76
2022/04/04 03:24:24;;;;;;;0.75;0.75;;;2.20;99.90;;;;;;5071173;28;20568;-75
2022/04/04 03:26:51;;;;;;;9.25;3.78;;;2.20;99.90;;;;;;5081357;28;20218;-75
2022/04/04 03:29:18;;;;;;;2.90;1.08;;;2.20;99.90;;;;;;5090553;28;20200;-75
2022/04/04 03:31:45;;;;;;;4.95;2.60;;;2.20;99.90;;;;;;5089932;28;20566;-74
2022/04/04 03:34:12;;;;;;;2.15;1.38;;;2.20;99.90;;;;;;5092443;28;20197;-76
2022/04/04 03:36:39;;;;;;;2.85;1.55;;;2.20;99.90;;;;;;5095121;28;20218;-76
2022/04/04 03:39:06;;;;;;;1.90;1.80;;;2.20;99.90;;;;;;5094705;28;20199;-75
2022/04/04 03:41:34;;;;;;;7.22;2.55;;;2.20;99.90;;;;;;5094876;28;20664;-75
2022/04/04 03:44:01;;;;;;;3.55;2.88;;;2.20;99.90;;;;;;5094991;28;20202;-75
2022/04/04 03:46:28;;;;;;;2.72;1.98;;;2.20;99.90;;;;;;5095120;28;20217;-75
2022/04/04 03:48:54;;;;;;;2.38;1.65;;;2.20;99.90;;;;;;5094696;28;20672;-75
2022/04/04 03:51:21;;;;;;;5.68;2.35;;;2.20;99.90;;;;;;5094953;28;20198;-75
2022/04/04 03:53:48;;;;;;;2.88;2.65;;;2.20;99.90;;;;;;5095168;28;20198;-75
2022/04/04 03:56:15;;;;;;;1.35;1.25;;;2.20;99.90;;;;;;5094843;28;20225;-75
2022/04/04 03:58:43;;;;;;;5.13;3.75;;;2.20;99.90;;;;;;5095124;28;20733;-75
2022/04/04 04:01:10;;;;;;;1.83;1.73;;;2.10;99.90;;;;;;5094523;28;20221;-75
2022/04/04 04:03:37;;;;;;;1.70;1.60;;;2.20;99.90;;;;;;5095239;28;20558;-75
2022/04/04 04:06:12;;;;;;;4.45;2.70;;;2.10;99.90;;;;;;5094441;28;20729;-75
2022/04/04 04:08:40;;;;;;;0.93;0.90;;;2.20;99.90;;;;;;5094975;28;20190;-75
2022/04/04 04:11:07;;;;;;;1.63;1.55;;;2.10;99.90;;;;;;5094291;28;20620;-76
2022/04/04 04:13:34;;;;;;;4.50;3.35;;;2.10;99.90;;;;;;5094719;28;20195;-75
2022/04/04 04:16:03;;;;;;;1.50;1.40;;;2.20;99.90;;;;;;5094873;28;20556;-75
2022/04/04 04:18:30;;;;;;;3.58;3.38;;;2.20;99.90;;;;;;5094433;28;20226;-75
2022/04/04 04:20:57;;;;;;;2.08;1.98;;;2.20;99.90;;;;;;5093676;28;20204;-75
2022/04/04 04:23:24;;;;;;;2.75;2.55;;;2.20;99.90;;;;;;5094479;28;20194;-75
2022/04/04 04:25:51;;;;;;;4.28;3.80;;;2.20;99.90;;;;;;5094568;28;20215;-75
2022/04/04 04:28:18;;;;;;;1.80;1.70;;;2.20;99.90;;;;;;5094708;28;20589;-75
2022/04/04 04:30:45;;;;;;;2.42;1.63;;;2.20;99.90;;;;;;5093640;28;20791;-75
2022/04/04 04:33:13;;;;;;;2.95;2.38;;;2.30;99.90;;;;;;5081279;28;20194;-75
2022/04/04 04:35:41;;;;;;;3.00;2.80;;;2.30;99.90;;;;;;5071633;28;20215;-76
2022/04/04 04:38:08;;;;;;;3.65;1.45;;;2.30;99.90;;;;;;5079707;28;20244;-76
2022/04/04 04:40:35;;;;;;;1.85;1.63;;;2.30;99.90;;;;;;5083809;28;20226;-76
2022/04/04 04:43:02;;;;;;;4.75;2.60;;;2.30;99.90;;;;;;5073825;28;20205;-74
2022/04/04 04:45:29;;;;;;;3.92;2.78;;;2.30;99.90;;;;;;5073668;28;20263;-76
2022/04/04 04:47:56;;;;;;;5.75;2.30;;;2.40;99.90;;;;;;5074118;28;20595;-76
2022/04/04 04:50:25;;;;;;;2.40;2.20;;;2.30;99.90;;;;;;5072784;28;20195;-76
2022/04/04 04:52:52;;;;;;;3.00;2.28;;;2.40;99.90;;;;;;5073631;28;20564;-76
2022/04/04 04:55:20;;;;;;;2.70;2.50;;;2.30;99.90;;;;;;5073740;28;20215;-74
2022/04/04 04:57:47;;;;;;;4.25;3.95;;;2.30;99.90;;;;;;5073927;28;20210;-76
2022/04/04 05:00:17;;;;;;;6.28;3.15;;;2.30;99.90;;;;;;5072585;28;20257;-76
2022/04/04 05:02:44;;;;;;;2.20;1.80;;;2.30;99.90;;;;;;5073885;28;20195;-73
2022/04/04 05:05:11;;;;;;;2.63;2.42;;;2.40;99.90;;;;;;5073353;28;20227;-76
2022/04/04 05:07:39;;;;;;;3.08;2.58;;;2.40;99.90;;;;;;5073795;28;20660;-74
2022/04/04 05:10:07;;;;;;;1.23;1.20;;;2.40;99.90;;;;;;5072761;28;20214;-76
2022/04/04 05:12:34;;;;;;;3.10;2.80;;;2.40;99.90;;;;;;5073609;28;20194;-76
2022/04/04 05:15:00;;;;;;;1.27;1.27;;;2.40;99.90;;;;;;5073211;28;20218;-76
2022/04/04 05:17:27;;;;;;;3.15;2.95;;;2.40;99.90;;;;;;5073217;28;20223;-76
2022/04/04 05:19:54;;;;;;;5.95;2.33;;;2.50;99.90;;;;;;5072146;28;20696;-75
2022/04/04 05:22:20;;;;;;;9.50;3.78;;;2.50;99.90;;;;;;5071735;28;20559;-75
2022/04/04 05:24:48;;;;;;;5.13;4.45;;;2.50;99.90;;;;;;5071558;28;20219;-76
2022/04/04 05:27:16;;;;;;;1.60;1.55;;;2.60;99.90;;;;;;5073617;28;20537;-75
2022/04/04 05:29:42;;;;;;;2.10;1.35;;;2.60;99.90;;;;;;5072019;28;20195;-75
2022/04/04 05:32:09;;;;;;;8.32;2.67;;;2.70;99.90;;;;;;5070925;28;20196;-75
2022/04/04 05:34:36;;;;;;;4.18;2.25;;;2.70;99.90;;;;;;5070374;28;20218;-77
2022/04/04 05:37:04;;;;;;;4.57;4.07;;;2.80;99.90;;;;;;5063482;28;20216;-76
2022/04/04 05:39:30;;;;;;;19.90;5.68;;;2.80;99.90;;;;;;5064512;28;20195;-75
2022/04/04 05:41:58;;;;;;;3.50;2.33;;;2.80;99.90;;;;;;5072324;28;20213;-75
2022/04/04 05:44:26;;;;;;;4.85;4.38;;;2.90;99.90;;;;;;5072478;28;20541;-75
2022/04/04 05:46:53;;;;;;;4.95;3.70;;;2.90;99.90;;;;;;5072039;28;20211;-76
2022/04/04 05:49:20;;;;;;;3.08;1.85;;;3.00;99.90;;;;;;5071900;28;20227;-75
2022/04/04 05:51:48;;;;;;;6.55;4.00;;;3.00;99.90;;;;;;5072264;28;20205;-77
2022/04/04 05:54:15;;;;;;;1.33;1.23;;;3.10;99.90;;;;;;5072053;28;21067;-75
2022/04/04 05:56:44;;;;;;;9.52;4.25;;;3.10;99.90;;;;;;5070953;28;20222;-76
2022/04/04 05:59:13;;;;;;;5.88;3.35;;;3.10;99.90;;;;;;5071920;28;20303;-76
2022/04/04 06:01:40;;;;;;;6.65;5.97;;;3.20;99.90;;;;;;5072119;28;20204;-77
2022/04/04 06:04:06;;;;;;;7.40;4.07;;;3.20;99.90;;;;;;5072295;28;20234;-75
2022/04/04 06:06:34;;;;;;;4.10;3.80;;;3.20;99.90;;;;;;5071599;28;20720;-76
2022/04/04 06:09:01;;;;;;;2.92;2.28;;;3.30;99.90;;;;;;5070829;28;20270;-76
2022/04/04 06:11:28;;;;;;;36.17;3.42;;;3.30;99.90;;;;;;5071868;28;20193;-76
2022/04/04 06:13:55;;;;;;;8.15;5.15;;;3.30;99.90;;;;;;5072041;28;20204;-76
2022/04/04 06:16:23;;;;;;;4.72;2.80;;;3.30;99.90;;;;;;5072015;28;20452;-74
2022/04/04 06:18:50;;;;;;;4.65;3.30;;;3.30;99.90;;;;;;5064420;28;20218;-75
2022/04/04 06:21:17;;;;;;;3.67;1.05;;;3.40;99.90;;;;;;5051435;28;20231;-76
2022/04/04 06:23:44;;;;;;;3.85;3.55;;;3.40;99.90;;;;;;5051630;28;20198;-76
2022/04/04 06:26:13;;;;;;;3.90;3.28;;;3.40;99.90;;;;;;5051468;28;20227;-76
2022/04/04 06:28:39;;;;;;;3.15;2.38;;;3.50;99.90;;;;;;5051671;28;20538;-75
2022/04/04 06:31:06;;;;;;;1.70;1.38;;;3.50;99.90;;;;;;5050540;28;20207;-76
2022/04/04 06:33:34;;;;;;;1.67;1.58;;;3.60;99.90;;;;;;5049325;28;20201;-72
2022/04/04 06:36:01;;;;;;;5.18;3.47;;;3.80;99.90;;;;;;5051400;28;20218;-76
2022/04/04 06:38:28;;;;;;;2.35;1.58;;;3.90;99.90;;;;;;5051011;28;20302;-76
2022/04/04 06:40:56;;;;;;;8.27;3.53;;;4.10;99.90;;;;;;5050593;28;20248;-75
2022/04/04 06:43:23;;;;;;;10.63;3.75;;;4.40;99.90;;;;;;5051372;28;20205;-76
2022/04/04 06:45:50;;;;;;;2.13;1.23;;;4.80;99.90;;;;;;5050921;28;20213;-76
2022/04/04 06:48:17;;;;;;;3.25;1.90;;;4.90;99.90;;;;;;5051026;28;20305;-76
2022/04/04 06:50:45;;;;;;;1.48;1.48;;;5.00;99.90;;;;;;5050517;28;20197;-75
2022/04/04 06:53:12;;;;;;;6.03;2.55;;;5.20;99.90;;;;;;5051319;28;20194;-76
2022/04/04 06:55:39;;;;;;;10.32;1.98;;;5.20;99.90;;;;;;5051095;28;20225;-75
2022/04/04 06:58:06;;;;;;;3.88;2.47;;;4.90;99.90;;;;;;5051018;28;20221;-76
2022/04/04 07:00:35;;;;;;;2.63;1.77;;;4.80;99.90;;;;;;5050613;28;20213;-76
2022/04/04 07:03:02;;;;;;;3.88;2.90;;;4.60;99.90;;;;;;5051009;28;20209;-75
2022/04/04 07:05:29;;;;;;;3.38;2.83;;;4.60;99.90;;;;;;5050503;28;20228;-76
2022/04/04 07:07:57;;;;;;;6.85;4.85;;;4.50;99.90;;;;;;5050962;28;20208;-76
2022/04/04 07:10:24;;;;;;;5.32;4.28;;;4.50;99.90;;;;;;5050083;28;20219;-76
2022/04/04 07:12:51;;;;;;;2.22;2.03;;;4.50;99.90;;;;;;5049706;28;20695;-75
2022/04/04 07:15:17;;;;;;;4.82;3.47;;;4.60;99.90;;;;;;5050739;28;20221;-76
2022/04/04 07:17:45;;;;;;;1.23;1.13;;;4.60;99.90;;;;;;5051000;28;20215;-76
2022/04/04 07:20:13;;;;;;;2.67;2.33;;;4.70;99.90;;;;;;5050120;28;20589;-75
2022/04/04 07:22:42;;;;;;;4.15;3.00;;;4.80;99.90;;;;;;5050925;28;20225;-76
2022/04/04 07:25:14;;;;;;;0.70;0.70;;;4.80;99.90;;;;;;5050935;28;20220;-76
2022/04/04 07:27:41;;;;;;;0.60;0.60;;;4.90;99.90;;;;;;5050689;28;20549;-75
2022/04/04 07:30:10;;;;;;;6.28;4.07;;;5.00;99.90;;;;;;5050455;28;20198;-75
2022/04/04 07:32:37;;;;;;;2.45;1.38;;;5.20;99.90;;;;;;5050704;28;20194;-75
2022/04/04 07:35:05;;;;;;;1.90;1.80;;;5.10;99.90;;;;;;5050071;28;20718;-75
2022/04/04 07:37:32;;;;;;;8.13;2.58;;;5.20;99.90;;;;;;5050473;28;20224;-76
2022/04/04 07:39:59;;;;;;;2.92;2.72;;;5.10;99.90;;;;;;5049516;28;20193;-75
2022/04/04 07:42:27;;;;;;;3.47;2.53;;;5.20;99.90;;;;;;5050536;28;20205;-76
2022/04/04 07:44:54;;;;;;;2.30;2.20;;;5.40;99.90;;;;;;5050570;28;20240;-75
2022/04/04 07:47:21;;;;;;;0.50;0.43;;;5.60;99.90;;;;;;5050181;28;20191;-76
2022/04/04 07:49:48;;;;;;;1.50;1.40;;;5.90;99.90;;;;;;5049228;28;20229;-74
2022/04/04 07:52:14;;;;;;;7.78;3.50;;;6.20;99.90;;;;;;5050436;28;20446;-76
2022/04/04 07:54:42;;;;;;;5.38;2.25;;;6.20;99.90;;;;;;5049911;28;20665;-76
2022/04/04 07:57:09;;;;;;;3.58;3.28;;;6.50;99.90;;;;;;5050424;28;20194;-76
2022/04/04 07:59:37;;;;;;;3.53;1.77;;;6.30;99.90;;;;;;5049546;28;20230;-75
2022/04/04 08:02:04;;;;;;;3.20;2.80;;;6.10;99.90;;;;;;5050083;28;20201;-75
2022/04/04 08:04:30;;;;;;;10.52;2.50;;;6.00;99.90;;;;;;5050162;28;20195;-75
2022/04/04 08:06:57;;;;;;;4.07;3.28;;;6.00;99.90;;;;;;5050408;28;20222;-76
2022/04/04 08:09:24;;;;;;;3.90;2.75;;;6.20;99.90;;;;;;5049635;28;20206;-75
2022/04/04 08:11:52;;;;;;;3.60;2.28;;;6.30;99.90;;;;;;5050485;28;20195;-75
2022/04/04 08:14:19;;;;;;;10.60;2.72;;;6.40;99.90;;;;;;5048614;28;20542;-76
2022/04/04 08:16:47;;;;;;;2.17;2.08;;;6.40;99.90;;;;;;5050382;28;20610;-76
2022/04/04 08:19:15;;;;;;;1.52;1.42;;;6.40;99.90;;;;;;5049303;28;20215;-75
2022/04/04 08:21:42;;;;;;;2.45;1.58;;;6.50;99.90;;;;;;5053426;28;20225;-75
2022/04/04 08:24:09;;;;;;;4.28;3.88;;;6.60;99.90;;;;;;5053501;28;20248;-76
2022/04/04 08:26:36;;;;;;;2.50;2.08;;;6.50;99.90;;;;;;5054053;28;20211;-71
2022/04/04 08:29:03;;;;;;;2.13;1.90;;;6.40;99.90;;;;;;5053195;28;20202;-76
2022/04/04 08:31:29;;;;;;;8.10;2.22;;;6.30;99.90;;;;;;5053957;28;20194;-76
2022/04/04 08:33:58;;;;;;;2.10;1.85;;;6.30;99.90;;;;;;5052801;28;20209;-76
2022/04/04 08:36:24;;;;;;;3.60;3.30;;;6.50;99.90;;;;;;5053220;28;20735;-76
2022/04/04 08:38:51;;;;;;;4.18;3.03;;;6.50;99.90;;;;;;5052445;28;20222;-74
2022/04/04 08:41:18;;;;;;;3.10;2.15;;;6.50;99.90;;;;;;5052576;28;20542;-77
2022/04/04 08:43:49;;;;;;;4.57;4.28;;;6.40;99.90;;;;;;5053659;28;20190;-76
2022/04/04 08:46:17;;;;;;;2.97;2.78;;;6.50;99.90;;;;;;5053310;28;20287;-75
2022/04/04 08:48:44;;;;;;;2.42;2.33;;;6.30;99.90;;;;;;5053188;28;20195;-75
2022/04/04 08:51:12;;;;;;;3.80;3.50;;;6.30;99.90;;;;;;5053072;28;20206;-75
2022/04/04 08:53:40;;;;;;;2.35;2.15;;;6.30;99.90;;;;;;5052809;28;20203;-76
2022/04/04 08:56:09;;;;;;;6.40;3.25;;;6.40;99.90;;;;;;5053223;28;20227;-76
2022/04/04 08:58:37;;;;;;;4.07;2.88;;;6.40;99.90;;;;;;5053069;28;20225;-75
2022/04/04 09:01:04;;;;;;;1.83;1.73;;;6.50;99.90;;;;;;5052770;28;20198;-74
2022/04/04 09:03:31;;;;;;;11.65;3.95;;;6.50;99.90;;;;;;5052768;28;20232;-76
2022/04/04 09:05:59;;;;;;;4.25;3.85;;;6.50;99.90;;;;;;5052660;28;20709;-76
2022/04/04 09:08:29;;;;;;;4.13;3.78;;;6.40;99.90;;;;;;5053124;28;20198;-76
2022/04/04 09:10:57;;;;;;;10.38;2.97;;;6.30;99.90;;;;;;5053691;28;20256;-76
2022/04/04 09:13:27;;;;;;;2.55;2.35;;;6.30;99.90;;;;;;5051208;28;20557;-75
2022/04/04 09:15:59;;;;;;;2.65;2.38;;;6.30;99.90;;;;;;5053180;28;20646;-75
2022/04/04 09:18:46;;;;;;;4.10;2.38;;;6.20;99.90;;;;;;5052055;28;20218;-75
2022/04/04 09:21:27;;;;;;;0.80;0.77;;;6.20;99.90;;;;;;5052949;28;20211;-75
2022/04/04 09:23:58;;;;;;;6.35;3.88;;;6.30;99.90;;;;;;5053068;28;20193;-75
2022/04/04 09:26:30;;;;;;;1.58;1.48;;;6.50;99.90;;;;;;5052766;28;20703;-75
2022/04/04 09:28:58;;;;;;;4.72;3.25;;;6.60;99.90;;;;;;5051691;28;20218;-73
2022/04/04 09:31:25;;;;;;;2.63;2.42;;;6.60;99.90;;;;;;5051602;28;20203;-75
2022/04/04 09:33:52;;;;;;;1.00;0.90;;;6.80;99.90;;;;;;5052376;28;20672;-75
2022/04/04 09:36:19;;;;;;;1.58;1.48;;;6.80;99.90;;;;;;5052556;28;20249;-75
2022/04/04 09:39:00;;;;;;;1.33;1.23;;;6.80;99.90;;;;;;5052370;28;20584;-73
2022/04/04 09:41:28;;;;;;;2.33;1.70;;;6.80;99.90;;;;;;5052216;28;20633;-75
2022/04/04 09:43:57;;;;;;;1.42;0.95;;;6.60;99.90;;;;;;5052262;28;20229;-75
2022/04/04 09:46:24;;;;;;;2.38;1.35;;;6.60;99.90;;;;;;5052251;28;20226;-75
2022/04/04 09:49:08;;;;;;;1.20;1.17;;;6.40;99.90;;;;;;5051827;28;20187;-74
2022/04/04 09:51:41;;;;;;;2.53;2.28;;;6.30;99.90;;;;;;5052062;28;20179;-75
2022/04/04 09:54:11;;;;;;;2.90;2.70;;;6.30;99.90;;;;;;5052578;28;20252;-75
2022/04/04 09:56:38;;;;;;;5.07;3.17;;;6.30;99.90;;;;;;5052360;28;20214;-74
2022/04/04 09:59:06;;;;;;;2.53;2.33;;;6.20;99.90;;;;;;5051040;28;20557;-74
2022/04/04 10:01:34;;;;;;;2.60;2.40;;;6.20;99.90;;;;;;5051959;28;20199;-76
2022/04/04 10:04:03;;;;;;;8.45;3.78;;;6.00;99.90;;;;;;5052278;28;20202;-75
2022/04/04 10:06:31;;;;;;;6.25;4.25;;;5.90;99.90;;;;;;5051707;28;20226;-76
2022/04/04 10:08:59;;;;;;;3.88;3.63;;;5.70;99.90;;;;;;5050870;28;20632;-73
2022/04/04 10:11:30;;;;;;;3.88;2.78;;;5.70;99.90;;;;;;5051949;28;20198;-74
2022/04/04 10:13:57;;;;;;;3.22;2.92;;;5.70;99.90;;;;;;5049796;28;20201;-74
2022/04/04 10:16:25;;;;;;;2.20;1.75;;;5.60;99.90;;;;;;5052003;28;20222;-75
2022/04/04 10:18:54;;;;;;;4.32;3.95;;;5.60;99.90;;;;;;5051146;28;20214;-74
2022/04/04 10:21:21;;;;;;;6.50;3.33;;;5.60;99.90;;;;;;5051367;28;20664;-75
2022/04/04 10:23:51;;;;;;;7.75;4.28;;;5.60;99.90;;;;;;5051617;28;20607;-71
2022/04/04 10:26:21;;;;;;;1.05;0.93;;;5.50;99.90;;;;;;5051540;28;20739;-75
2022/04/04 10:28:49;;;;;;;11.95;3.70;;;5.60;99.90;;;;;;5051532;28;20202;-73
2022/04/04 10:31:18;;;;;;;11.15;5.68;;;5.50;99.90;;;;;;5051311;28;20198;-75
2022/04/04 10:33:46;;;;;;;3.75;3.53;;;5.50;99.90;;;;;;5051380;28;20584;-76
2022/04/04 10:36:15;;;;;;;3.70;3.42;;;5.30;99.90;;;;;;5051924;28;20698;-75
2022/04/04 10:38:49;;;;;;;5.07;3.25;;;5.30;99.90;;;;;;5051642;28;20211;-75
2022/04/04 10:41:18;;;;;;;5.53;4.75;;;5.30;99.90;;;;;;5051469;28;20595;-76
2022/04/04 10:43:47;;;;;;;5.45;3.90;;;5.10;99.90;;;;;;5050735;28;20587;-75
2022/04/04 10:46:17;;;;;;;25.55;3.35;;;5.00;99.90;;;;;;5050929;28;20741;-74
2022/04/04 10:48:50;;;;;;;6.50;4.13;;;5.00;99.90;;;;;;5051262;28;20206;-73
2022/04/04 10:51:18;;;;;;;3.65;2.45;;;5.00;99.90;;;;;;5051289;28;20206;-77
2022/04/04 10:53:48;;;;;;;2.60;2.40;;;5.00;99.90;;;;;;5051572;28;20206;-77
2022/04/04 10:56:21;;;;;;;4.72;4.32;;;4.90;99.90;;;;;;5051227;28;20221;-77
2022/04/04 10:58:48;;;;;;;6.90;4.10;;;4.80;99.90;;;;;;5050921;28;20308;-74
2022/04/04 11:01:18;;;;;;;3.85;3.33;;;4.80;99.90;;;;;;5050943;28;20204;-77
2022/04/04 11:04:06;;;;;;;5.03;4.53;;;4.80;99.90;;;;;;5051244;28;20197;-74
2022/04/04 11:09:33;;;;;;;5.20;4.70;;;4.80;99.90;;;;;;5050026;28;20212;-78
2022/04/04 11:12:12;;;;;;;8.93;7.05;;;4.70;99.90;;;;;;5050202;28;20202;-74
2022/04/04 11:14:54;;;;;;;6.90;5.00;;;4.70;99.90;;;;;;5051378;28;20189;-77
2022/04/04 11:17:33;;;;;;;10.43;8.23;;;4.70;99.90;;;;;;5050784;28;20202;-72
2022/04/04 11:20:04;;;;;;;6.03;5.43;;;4.70;99.90;;;;;;5050111;28;20613;-77
2022/04/04 11:22:34;;;;;;;2.30;2.15;;;4.70;99.90;;;;;;5051018;28;20549;-77
2022/04/04 11:25:04;;;;;;;2.40;2.20;;;4.70;99.90;;;;;;5051111;28;20254;-77
2022/04/04 11:27:33;;;;;;;3.75;3.42;;;4.70;99.90;;;;;;5050693;28;20221;-78
2022/04/04 11:30:00;;;;;;;3.63;2.58;;;4.70;99.90;;;;;;5050094;28;20190;-78
2022/04/04 11:32:31;;;;;;;5.13;4.35;;;4.70;99.90;;;;;;5050887;28;20190;-76
2022/04/04 11:35:02;;;;;;;4.50;2.63;;;4.70;99.90;;;;;;5050327;28;20761;-73
2022/04/04 11:37:29;;;;;;;9.45;7.80;;;4.70;99.90;;;;;;5050956;28;20204;-76
2022/04/04 11:40:03;;;;;;;6.60;5.10;;;4.60;99.90;;;;;;5050161;28;20308;-76
2022/04/04 11:42:31;;;;;;;10.25;7.03;;;4.50;99.90;;;;;;5051143;28;20280;-75
2022/04/04 11:44:59;;;;;;;8.30;6.38;;;4.60;99.90;;;;;;5051100;28;20213;-76
2022/04/04 11:47:27;;;;;;;5.15;4.47;;;4.50;99.90;;;;;;5050608;28;20201;-75
2022/04/04 11:49:58;;;;;;;15.20;8.30;;;4.50;99.90;;;;;;5050422;28;20194;-75
2022/04/04 11:52:26;;;;;;;8.63;6.15;;;4.50;99.90;;;;;;5051172;28;20283;-76
2022/04/04 11:54:53;;;;;;;3.55;3.25;;;4.50;99.90;;;;;;5051692;28;20229;-76
2022/04/04 11:57:23;;;;;;;4.20;3.80;;;4.50;99.90;;;;;;5054578;28;20203;-76
2022/04/04 11:59:51;;;;;;;3.42;3.03;;;4.50;99.90;;;;;;5053883;28;20213;-76
2022/04/04 12:02:23;;;;;;;4.03;3.13;;;4.50;99.90;;;;;;5054819;28;20660;-75
2022/04/04 12:04:52;;;;;;;9.65;7.95;;;4.50;99.90;;;;;;5054234;28;20229;-75
2022/04/04 12:07:19;;;;;;;5.38;4.75;;;4.50;99.90;;;;;;5054511;28;20329;-75
2022/04/04 12:09:51;;;;;;;2.65;2.45;;;4.40;99.90;;;;;;5053034;28;20216;-76
2022/04/04 12:12:18;;;;;;;2.70;2.47;;;4.40;99.90;;;;;;5053228;28;20203;-75
2022/04/04 12:14:48;;;;;;;4.88;4.38;;;4.50;99.90;;;;;;5054266;28;20194;-75
2022/04/04 12:17:15;;;;;;;12.27;10.38;;;4.50;99.90;;;;;;5054048;28;20233;-76
2022/04/04 12:19:43;;;;;;;5.97;4.43;;;4.50;99.90;;;;;;5053439;28;20229;-76
2022/04/04 12:24:59;;;;;;;3.50;3.08;;;4.50;99.90;;;;;;5053812;28;20209;-75
2022/04/04 12:27:26;;;;;;;4.55;3.97;;;4.50;99.90;;;;;;5054028;28;20201;-75
2022/04/04 12:30:00;;;;;;;7.25;5.38;;;4.40;99.90;;;;;;5053506;28;20567;-75
2022/04/04 12:32:27;;;;;;;6.30;4.95;;;4.40;99.90;;;;;;5054316;28;20186;-75
2022/04/04 12:35:02;;;;;;;6.47;5.13;;;4.50;99.90;;;;;;5053955;28;20392;-76
2022/04/04 12:37:38;;;;;;;15.35;8.65;;;4.50;99.90;;;;;;5053723;28;20194;-76
2022/04/04 12:40:16;;;;;;;9.32;6.40;;;4.50;99.90;;;;;;5053079;28;20538;-76
2022/04/04 12:42:43;;;;;;;5.55;4.95;;;4.50;99.90;;;;;;5053997;28;20199;-76
2022/04/04 12:45:11;;;;;;;7.10;5.47;;;4.50;99.90;;;;;;5053252;28;20211;-75
2022/04/04 12:47:53;;;;;;;4.63;3.63;;;4.50;99.90;;;;;;5053814;28;20634;-77
2022/04/04 12:50:21;;;;;;;3.78;2.92;;;4.40;99.90;;;;;;5052870;28;20177;-76
2022/04/04 12:52:59;;;;;;;4.93;4.18;;;4.40;99.90;;;;;;5053882;28;20197;-72
2022/04/04 12:55:26;;;;;;;6.65;5.35;;;4.40;99.90;;;;;;5053103;28;20216;-75
2022/04/04 12:57:53;;;;;;;9.73;5.00;;;4.40;99.90;;;;;;5053153;28;20204;-76
2022/04/04 13:00:28;;;;;;;7.03;3.50;;;4.30;99.90;;;;;;5052775;28;20218;-75
2022/04/04 13:02:55;;;;;;;3.92;3.13;;;4.30;99.90;;;;;;5053350;28;20619;-76
2022/04/04 13:05:25;;;;;;;7.68;6.65;;;4.40;99.90;;;;;;5053061;28;20219;-73
2022/04/04 13:07:53;;;;;;;7.30;6.20;;;4.30;99.90;;;;;;5053800;28;20201;-76